Terminal Aerodrome Forecast
Issued by NWS Rapid City, SD

Home | Current Version | Previous Version | Text Only | Print | Product List | Glossary On
Versions: 1 2 3 4 5 6 7 8 9 10 11 12 13 14 15 16
000
FTUS43 KUNR 261700
TAFRAP
TAF
KRAP 261725Z 2618/2718 34022G32KT P6SM SCT050 OVC150
     FM270000 VRB05KT P6SM OVC070
     FM271500 33020G30KT P6SM OVC250=

USA.gov is the U.S. government's official web portal to all federal, state and local government web resources and services.